KDLF

Laughlin AFB Airport

Del Rio, Texas, USA
METAR KDLF 220038Z 35012KT 10SM OVC018 06/01 A3022 RMK AO2A SLP231
Observed Flight Rules
Feb-22 @ 00:38 UTC (4 hours ago) Marginal Visual Flight Rules
Wind Visibility Clouds
350° at 12 knots 10 miles
  • Overcast at 1,800' AGL
Temperatures Readings
Current 6°C / 43°F
Dewpoint 1°C / 34°F
Humidity 71%
Altimeter 30.22" Hg
Pressure 1023.1 hPa
Elevation 330
METAR KDLF 220038Z 35012KT 10SM OVC018 06/01 A3022 RMK AO2A SLP231
Observed Flight Rules
Feb-22 @ 00:38 UTC
(4 hours ago)
MVFR
Wind Visibility
350° at 12 knots 10 miles
Clouds
  • Overcast at 1,800' AGL
Temperature Dewpoint
6°C / 43°F 1°C / 34°F
Humidity Altimeter Pressure
71% 30.22" Hg 1023.1 hPa